sensor_id;sensor_type;location;lat;lon;timestamp;P1;durP1;ratioP1;P2;durP2;ratioP2
70150;SDS011;57517;43.562;19.540;2023-02-28T00:02:18;47.53;;;37.38;;
70150;SDS011;57517;43.562;19.540;2023-02-28T00:04:44;50.55;;;32.35;;
70150;SDS011;57517;43.562;19.540;2023-02-28T00:07:18;43.50;;;28.58;;
70150;SDS011;57517;43.562;19.540;2023-02-28T00:09:44;47.28;;;30.42;;
70150;SDS011;57517;43.562;19.540;2023-02-28T00:12:10;39.05;;;30.20;;
70150;SDS011;57517;43.562;19.540;2023-02-28T00:14:36;41.42;;;30.98;;
70150;SDS011;57517;43.562;19.540;2023-02-28T00:17:01;43.83;;;29.98;;
70150;SDS011;57517;43.562;19.540;2023-02-28T00:19:27;42.95;;;29.23;;
70150;SDS011;57517;43.562;19.540;2023-02-28T00:21:53;29.98;;;21.38;;
70150;SDS011;57517;43.562;19.540;2023-02-28T00:24:19;26.33;;;18.10;;
70150;SDS011;57517;43.562;19.540;2023-02-28T00:26:44;20.70;;;13.55;;
70150;SDS011;57517;43.562;19.540;2023-02-28T00:29:10;20.33;;;14.05;;
70150;SDS011;57517;43.562;19.540;2023-02-28T00:31:36;22.80;;;16.33;;
70150;SDS011;57517;43.562;19.540;2023-02-28T00:34:01;27.02;;;18.75;;
70150;SDS011;57517;43.562;19.540;2023-02-28T00:36:27;32.63;;;20.83;;
70150;SDS011;57517;43.562;19.540;2023-02-28T00:38:53;28.70;;;19.42;;
70150;SDS011;57517;43.562;19.540;2023-02-28T00:41:18;32.60;;;21.42;;
70150;SDS011;57517;43.562;19.540;2023-02-28T00:43:44;30.80;;;20.85;;
70150;SDS011;57517;43.562;19.540;2023-02-28T00:46:10;35.97;;;23.85;;
70150;SDS011;57517;43.562;19.540;2023-02-28T00:48:36;34.55;;;24.83;;
70150;SDS011;57517;43.562;19.540;2023-02-28T00:51:02;31.48;;;21.33;;
70150;SDS011;57517;43.562;19.540;2023-02-28T00:53:28;25.75;;;17.02;;
70150;SDS011;57517;43.562;19.540;2023-02-28T00:55:54;21.33;;;15.23;;
70150;SDS011;57517;43.562;19.540;2023-02-28T00:58:20;24.80;;;15.98;;
70150;SDS011;57517;43.562;19.540;2023-02-28T01:00:45;21.50;;;15.73;;
70150;SDS011;57517;43.562;19.540;2023-02-28T01:03:15;22.58;;;14.98;;
70150;SDS011;57517;43.562;19.540;2023-02-28T01:05:41;21.90;;;14.80;;
70150;SDS011;57517;43.562;19.540;2023-02-28T01:08:07;26.17;;;17.40;;
70150;SDS011;57517;43.562;19.540;2023-02-28T01:10:33;27.35;;;17.58;;
70150;SDS011;57517;43.562;19.540;2023-02-28T01:13:01;23.77;;;15.65;;
70150;SDS011;57517;43.562;19.540;2023-02-28T01:15:27;23.80;;;17.27;;
70150;SDS011;57517;43.562;19.540;2023-02-28T01:17:53;20.88;;;13.65;;
70150;SDS011;57517;43.562;19.540;2023-02-28T01:20:19;24.40;;;15.98;;
70150;SDS011;57517;43.562;19.540;2023-02-28T01:22:45;27.73;;;18.50;;
70150;SDS011;57517;43.562;19.540;2023-02-28T01:25:11;20.73;;;13.77;;
70150;SDS011;57517;43.562;19.540;2023-02-28T01:27:37;21.42;;;13.55;;
70150;SDS011;57517;43.562;19.540;2023-02-28T01:30:05;23.92;;;17.50;;
70150;SDS011;57517;43.562;19.540;2023-02-28T01:32:31;25.05;;;16.20;;
70150;SDS011;57517;43.562;19.540;2023-02-28T01:34:57;20.63;;;13.77;;
70150;SDS011;57517;43.562;19.540;2023-02-28T01:37:23;20.17;;;13.10;;
70150;SDS011;57517;43.562;19.540;2023-02-28T01:39:48;23.13;;;13.63;;
70150;SDS011;57517;43.562;19.540;2023-02-28T01:42:14;25.83;;;17.50;;
70150;SDS011;57517;43.562;19.540;2023-02-28T01:47:38;24.17;;;17.70;;
70150;SDS011;57517;43.562;19.540;2023-02-28T01:50:09;23.42;;;14.15;;
70150;SDS011;57517;43.562;19.540;2023-02-28T01:52:43;16.08;;;11.63;;
70150;SDS011;57517;43.562;19.540;2023-02-28T01:55:11;17.80;;;13.10;;
70150;SDS011;57517;43.562;19.540;2023-02-28T01:57:43;19.77;;;12.80;;
70150;SDS011;57517;43.562;19.540;2023-02-28T02:00:14;22.08;;;14.63;;
70150;SDS011;57517;43.562;19.540;2023-02-28T02:02:42;23.45;;;14.65;;
70150;SDS011;57517;43.562;19.540;2023-02-28T02:05:14;23.75;;;16.35;;
70150;SDS011;57517;43.562;19.540;2023-02-28T02:07:42;25.40;;;16.55;;
70150;SDS011;57517;43.562;19.540;2023-02-28T02:10:15;26.23;;;15.85;;
70150;SDS011;57517;43.562;19.540;2023-02-28T02:18:33;23.20;;;15.43;;
70150;SDS011;57517;43.562;19.540;2023-02-28T02:29:57;24.25;;;14.95;;
70150;SDS011;57517;43.562;19.540;2023-02-28T02:43:26;24.67;;;16.23;;
70150;SDS011;57517;43.562;19.540;2023-02-28T02:46:12;24.55;;;15.23;;
70150;SDS011;57517;43.562;19.540;2023-02-28T02:48:46;24.10;;;13.95;;
70150;SDS011;57517;43.562;19.540;2023-02-28T02:51:15;26.83;;;14.70;;
70150;SDS011;57517;43.562;19.540;2023-02-28T02:53:46;27.13;;;15.20;;
70150;SDS011;57517;43.562;19.540;2023-02-28T02:56:19;25.70;;;16.70;;
70150;SDS011;57517;43.562;19.540;2023-02-28T02:58:49;24.20;;;14.90;;
70150;SDS011;57517;43.562;19.540;2023-02-28T03:01:19;25.15;;;14.55;;
70150;SDS011;57517;43.562;19.540;2023-02-28T03:03:54;26.10;;;16.63;;
70150;SDS011;57517;43.562;19.540;2023-02-28T03:06:21;59.58;;;34.28;;
70150;SDS011;57517;43.562;19.540;2023-02-28T03:08:47;36.97;;;23.13;;
70150;SDS011;57517;43.562;19.540;2023-02-28T03:11:13;87.50;;;54.60;;
70150;SDS011;57517;43.562;19.540;2023-02-28T03:21:44;186.63;;;113.43;;
70150;SDS011;57517;43.562;19.540;2023-02-28T03:24:14;106.40;;;71.80;;
70150;SDS011;57517;43.562;19.540;2023-02-28T03:26:50;134.60;;;96.95;;
70150;SDS011;57517;43.562;19.540;2023-02-28T03:29:42;140.57;;;95.05;;
70150;SDS011;57517;43.562;19.540;2023-02-28T03:32:21;195.68;;;130.95;;
70150;SDS011;57517;43.562;19.540;2023-02-28T03:37:47;48.25;;;28.58;;
70150;SDS011;57517;43.562;19.540;2023-02-28T03:40:41;33.17;;;21.75;;
70150;SDS011;57517;43.562;19.540;2023-02-28T03:43:13;29.20;;;18.00;;
70150;SDS011;57517;43.562;19.540;2023-02-28T03:45:44;50.25;;;33.63;;
70150;SDS011;57517;43.562;19.540;2023-02-28T03:48:20;65.53;;;43.00;;
70150;SDS011;57517;43.562;19.540;2023-02-28T03:50:59;75.50;;;52.05;;
70150;SDS011;57517;43.562;19.540;2023-02-28T03:53:32;99.00;;;67.50;;
70150;SDS011;57517;43.562;19.540;2023-02-28T03:56:12;82.43;;;56.55;;
70150;SDS011;57517;43.562;19.540;2023-02-28T03:58:48;57.50;;;40.30;;
70150;SDS011;57517;43.562;19.540;2023-02-28T04:01:25;39.90;;;28.35;;
70150;SDS011;57517;43.562;19.540;2023-02-28T04:04:04;26.00;;;16.60;;
70150;SDS011;57517;43.562;19.540;2023-02-28T04:06:30;23.63;;;14.85;;
70150;SDS011;57517;43.562;19.540;2023-02-28T04:08:58;26.90;;;15.32;;
70150;SDS011;57517;43.562;19.540;2023-02-28T04:11:35;25.13;;;16.02;;
70150;SDS011;57517;43.562;19.540;2023-02-28T04:14:05;23.55;;;15.43;;
70150;SDS011;57517;43.562;19.540;2023-02-28T04:16:33;23.58;;;15.27;;
70150;SDS011;57517;43.562;19.540;2023-02-28T04:19:00;25.95;;;14.65;;
70150;SDS011;57517;43.562;19.540;2023-02-28T04:21:40;21.35;;;15.15;;
70150;SDS011;57517;43.562;19.540;2023-02-28T04:24:11;24.67;;;14.73;;
70150;SDS011;57517;43.562;19.540;2023-02-28T04:26:40;23.67;;;15.02;;
70150;SDS011;57517;43.562;19.540;2023-02-28T04:29:09;21.50;;;14.88;;
70150;SDS011;57517;43.562;19.540;2023-02-28T04:31:35;24.90;;;15.05;;
70150;SDS011;57517;43.562;19.540;2023-02-28T04:34:01;26.45;;;14.70;;
70150;SDS011;57517;43.562;19.540;2023-02-28T04:36:27;21.23;;;12.82;;
70150;SDS011;57517;43.562;19.540;2023-02-28T04:38:53;22.98;;;15.35;;
70150;SDS011;57517;43.562;19.540;2023-02-28T04:41:19;23.58;;;14.40;;
70150;SDS011;57517;43.562;19.540;2023-02-28T04:43:46;22.90;;;14.35;;
70150;SDS011;57517;43.562;19.540;2023-02-28T04:46:12;27.10;;;16.40;;
70150;SDS011;57517;43.562;19.540;2023-02-28T04:48:39;23.20;;;14.75;;
70150;SDS011;57517;43.562;19.540;2023-02-28T04:51:06;28.38;;;18.58;;
70150;SDS011;57517;43.562;19.540;2023-02-28T04:53:35;28.17;;;17.75;;
70150;SDS011;57517;43.562;19.540;2023-02-28T04:56:02;26.08;;;16.98;;
70150;SDS011;57517;43.562;19.540;2023-02-28T04:58:29;28.55;;;20.38;;
70150;SDS011;57517;43.562;19.540;2023-02-28T05:01:01;34.40;;;20.35;;
70150;SDS011;57517;43.562;19.540;2023-02-28T05:03:27;32.10;;;21.70;;
70150;SDS011;57517;43.562;19.540;2023-02-28T05:05:53;29.27;;;18.75;;
70150;SDS011;57517;43.562;19.540;2023-02-28T05:08:19;36.10;;;23.38;;
70150;SDS011;57517;43.562;19.540;2023-02-28T05:10:44;57.78;;;37.50;;
70150;SDS011;57517;43.562;19.540;2023-02-28T05:13:13;48.63;;;33.50;;
70150;SDS011;57517;43.562;19.540;2023-02-28T05:15:39;34.63;;;23.60;;
70150;SDS011;57517;43.562;19.540;2023-02-28T05:18:05;30.35;;;19.63;;
70150;SDS011;57517;43.562;19.540;2023-02-28T05:20:31;51.00;;;33.40;;
70150;SDS011;57517;43.562;19.540;2023-02-28T05:22:56;73.47;;;46.90;;
70150;SDS011;57517;43.562;19.540;2023-02-28T05:25:24;70.65;;;46.03;;
70150;SDS011;57517;43.562;19.540;2023-02-28T05:27:50;49.35;;;31.17;;
70150;SDS011;57517;43.562;19.540;2023-02-28T05:30:16;44.35;;;30.15;;
70150;SDS011;57517;43.562;19.540;2023-02-28T05:32:41;38.65;;;25.95;;
70150;SDS011;57517;43.562;19.540;2023-02-28T05:35:07;38.03;;;28.30;;
70150;SDS011;57517;43.562;19.540;2023-02-28T05:37:34;38.95;;;27.92;;
70150;SDS011;57517;43.562;19.540;2023-02-28T05:39:59;35.83;;;24.23;;
70150;SDS011;57517;43.562;19.540;2023-02-28T05:42:25;35.78;;;24.30;;
70150;SDS011;57517;43.562;19.540;2023-02-28T05:44:51;39.92;;;26.38;;
70150;SDS011;57517;43.562;19.540;2023-02-28T05:47:17;40.35;;;27.70;;
70150;SDS011;57517;43.562;19.540;2023-02-28T05:49:42;49.08;;;34.08;;
70150;SDS011;57517;43.562;19.540;2023-02-28T05:52:08;46.45;;;34.20;;
70150;SDS011;57517;43.562;19.540;2023-02-28T05:54:34;51.28;;;32.97;;
70150;SDS011;57517;43.562;19.540;2023-02-28T05:57:00;103.68;;;65.05;;
70150;SDS011;57517;43.562;19.540;2023-02-28T05:59:25;66.72;;;42.03;;
70150;SDS011;57517;43.562;19.540;2023-02-28T06:01:51;39.53;;;24.17;;
70150;SDS011;57517;43.562;19.540;2023-02-28T06:04:18;34.35;;;22.20;;
70150;SDS011;57517;43.562;19.540;2023-02-28T06:06:45;35.83;;;24.17;;
70150;SDS011;57517;43.562;19.540;2023-02-28T06:09:12;35.33;;;23.83;;
70150;SDS011;57517;43.562;19.540;2023-02-28T06:11:38;33.38;;;21.20;;
70150;SDS011;57517;43.562;19.540;2023-02-28T06:14:04;30.73;;;19.88;;
70150;SDS011;57517;43.562;19.540;2023-02-28T06:16:30;30.05;;;19.65;;
70150;SDS011;57517;43.562;19.540;2023-02-28T06:18:58;29.60;;;19.55;;
70150;SDS011;57517;43.562;19.540;2023-02-28T06:21:24;23.27;;;16.90;;
70150;SDS011;57517;43.562;19.540;2023-02-28T06:23:52;28.30;;;18.27;;
70150;SDS011;57517;43.562;19.540;2023-02-28T06:26:18;29.27;;;17.45;;
70150;SDS011;57517;43.562;19.540;2023-02-28T06:28:44;58.55;;;42.42;;
70150;SDS011;57517;43.562;19.540;2023-02-28T06:31:11;48.40;;;33.33;;
70150;SDS011;57517;43.562;19.540;2023-02-28T06:33:38;45.92;;;28.48;;
70150;SDS011;57517;43.562;19.540;2023-02-28T06:36:05;41.60;;;25.45;;
70150;SDS011;57517;43.562;19.540;2023-02-28T06:38:32;35.25;;;23.08;;
70150;SDS011;57517;43.562;19.540;2023-02-28T06:40:59;34.10;;;21.98;;
70150;SDS011;57517;43.562;19.540;2023-02-28T06:43:27;40.90;;;28.42;;
70150;SDS011;57517;43.562;19.540;2023-02-28T06:45:54;48.95;;;31.13;;
70150;SDS011;57517;43.562;19.540;2023-02-28T06:48:21;62.28;;;37.08;;
70150;SDS011;57517;43.562;19.540;2023-02-28T06:50:47;85.70;;;56.70;;
70150;SDS011;57517;43.562;19.540;2023-02-28T06:53:13;61.47;;;40.65;;
70150;SDS011;57517;43.562;19.540;2023-02-28T06:55:39;50.72;;;34.47;;
70150;SDS011;57517;43.562;19.540;2023-02-28T06:58:06;42.70;;;30.20;;
70150;SDS011;57517;43.562;19.540;2023-02-28T07:00:40;40.65;;;25.23;;
70150;SDS011;57517;43.562;19.540;2023-02-28T07:03:07;32.40;;;23.77;;
70150;SDS011;57517;43.562;19.540;2023-02-28T07:05:34;38.55;;;28.08;;
70150;SDS011;57517;43.562;19.540;2023-02-28T07:08:01;44.38;;;31.60;;
70150;SDS011;57517;43.562;19.540;2023-02-28T07:10:28;44.00;;;33.35;;
70150;SDS011;57517;43.562;19.540;2023-02-28T07:12:54;50.28;;;36.60;;
70150;SDS011;57517;43.562;19.540;2023-02-28T07:15:20;41.72;;;30.00;;
70150;SDS011;57517;43.562;19.540;2023-02-28T07:17:45;40.13;;;24.75;;
70150;SDS011;57517;43.562;19.540;2023-02-28T07:20:11;36.50;;;24.83;;
70150;SDS011;57517;43.562;19.540;2023-02-28T07:22:37;49.92;;;37.97;;
70150;SDS011;57517;43.562;19.540;2023-02-28T07:25:04;42.42;;;31.48;;
70150;SDS011;57517;43.562;19.540;2023-02-28T07:27:30;62.85;;;45.38;;
70150;SDS011;57517;43.562;19.540;2023-02-28T07:29:56;63.47;;;47.33;;
70150;SDS011;57517;43.562;19.540;2023-02-28T07:32:22;45.08;;;36.50;;
70150;SDS011;57517;43.562;19.540;2023-02-28T07:34:48;56.28;;;42.03;;
70150;SDS011;57517;43.562;19.540;2023-02-28T07:37:14;163.52;;;120.45;;
70150;SDS011;57517;43.562;19.540;2023-02-28T07:39:40;110.68;;;78.40;;
70150;SDS011;57517;43.562;19.540;2023-02-28T07:42:08;61.10;;;44.25;;
70150;SDS011;57517;43.562;19.540;2023-02-28T07:44:36;38.58;;;30.67;;
70150;SDS011;57517;43.562;19.540;2023-02-28T07:47:06;36.50;;;27.35;;
70150;SDS011;57517;43.562;19.540;2023-02-28T07:49:33;40.72;;;29.48;;
70150;SDS011;57517;43.562;19.540;2023-02-28T07:51:59;35.35;;;25.13;;
70150;SDS011;57517;43.562;19.540;2023-02-28T07:54:25;39.42;;;29.23;;
70150;SDS011;57517;43.562;19.540;2023-02-28T07:56:51;36.75;;;27.63;;
70150;SDS011;57517;43.562;19.540;2023-02-28T07:59:16;35.85;;;26.42;;
70150;SDS011;57517;43.562;19.540;2023-02-28T08:01:42;32.83;;;23.13;;
70150;SDS011;57517;43.562;19.540;2023-02-28T08:04:09;28.55;;;21.05;;
70150;SDS011;57517;43.562;19.540;2023-02-28T08:06:35;29.75;;;20.15;;
70150;SDS011;57517;43.562;19.540;2023-02-28T08:09:00;36.30;;;24.05;;
70150;SDS011;57517;43.562;19.540;2023-02-28T08:11:26;26.80;;;21.20;;
70150;SDS011;57517;43.562;19.540;2023-02-28T08:13:52;29.15;;;19.92;;
70150;SDS011;57517;43.562;19.540;2023-02-28T08:16:19;34.38;;;22.65;;
70150;SDS011;57517;43.562;19.540;2023-02-28T08:18:47;36.30;;;23.75;;
70150;SDS011;57517;43.562;19.540;2023-02-28T08:21:14;34.25;;;25.00;;
70150;SDS011;57517;43.562;19.540;2023-02-28T08:23:40;30.48;;;21.95;;
70150;SDS011;57517;43.562;19.540;2023-02-28T08:26:06;28.75;;;21.08;;
70150;SDS011;57517;43.562;19.540;2023-02-28T08:28:32;27.17;;;20.33;;
70150;SDS011;57517;43.562;19.540;2023-02-28T08:30:58;24.75;;;17.13;;
70150;SDS011;57517;43.562;19.540;2023-02-28T08:33:24;30.25;;;21.27;;
70150;SDS011;57517;43.562;19.540;2023-02-28T08:35:54;39.92;;;28.00;;
70150;SDS011;57517;43.562;19.540;2023-02-28T08:38:20;35.67;;;24.40;;
70150;SDS011;57517;43.562;19.540;2023-02-28T08:40:47;30.35;;;21.42;;
70150;SDS011;57517;43.562;19.540;2023-02-28T08:43:12;30.13;;;21.42;;
70150;SDS011;57517;43.562;19.540;2023-02-28T08:45:38;34.95;;;23.77;;
70150;SDS011;57517;43.562;19.540;2023-02-28T08:48:04;36.72;;;25.73;;
70150;SDS011;57517;43.562;19.540;2023-02-28T08:50:30;29.70;;;20.50;;
70150;SDS011;57517;43.562;19.540;2023-02-28T08:52:55;30.13;;;20.75;;
70150;SDS011;57517;43.562;19.540;2023-02-28T08:55:21;24.17;;;18.88;;
70150;SDS011;57517;43.562;19.540;2023-02-28T08:57:47;25.42;;;17.77;;
70150;SDS011;57517;43.562;19.540;2023-02-28T09:00:13;37.30;;;27.17;;
70150;SDS011;57517;43.562;19.540;2023-02-28T09:02:39;30.92;;;21.80;;
70150;SDS011;57517;43.562;19.540;2023-02-28T09:05:07;33.92;;;23.05;;
70150;SDS011;57517;43.562;19.540;2023-02-28T09:07:33;28.80;;;19.55;;
70150;SDS011;57517;43.562;19.540;2023-02-28T09:09:59;31.63;;;22.70;;
70150;SDS011;57517;43.562;19.540;2023-02-28T09:12:25;28.83;;;22.02;;
70150;SDS011;57517;43.562;19.540;2023-02-28T09:14:52;39.85;;;27.63;;
70150;SDS011;57517;43.562;19.540;2023-02-28T09:17:19;40.65;;;26.63;;
70150;SDS011;57517;43.562;19.540;2023-02-28T09:19:47;36.05;;;24.23;;
70150;SDS011;57517;43.562;19.540;2023-02-28T09:22:13;35.70;;;26.90;;
70150;SDS011;57517;43.562;19.540;2023-02-28T09:24:38;53.63;;;37.47;;
70150;SDS011;57517;43.562;19.540;2023-02-28T09:27:04;59.70;;;40.13;;
70150;SDS011;57517;43.562;19.540;2023-02-28T09:29:31;44.70;;;28.20;;
70150;SDS011;57517;43.562;19.540;2023-02-28T09:31:58;32.25;;;24.80;;
70150;SDS011;57517;43.562;19.540;2023-02-28T09:34:25;36.20;;;24.40;;
70150;SDS011;57517;43.562;19.540;2023-02-28T09:36:51;29.05;;;20.10;;
70150;SDS011;57517;43.562;19.540;2023-02-28T09:39:20;27.73;;;19.45;;
70150;SDS011;57517;43.562;19.540;2023-02-28T09:41:47;27.95;;;18.92;;
70150;SDS011;57517;43.562;19.540;2023-02-28T09:44:20;36.15;;;26.92;;
70150;SDS011;57517;43.562;19.540;2023-02-28T09:47:13;34.25;;;25.83;;
70150;SDS011;57517;43.562;19.540;2023-02-28T09:49:44;29.98;;;22.40;;
70150;SDS011;57517;43.562;19.540;2023-02-28T09:52:18;30.88;;;22.58;;
70150;SDS011;57517;43.562;19.540;2023-02-28T09:54:48;37.25;;;26.92;;
70150;SDS011;57517;43.562;19.540;2023-02-28T10:08:18;31.75;;;21.20;;
70150;SDS011;57517;43.562;19.540;2023-02-28T10:11:11;29.60;;;20.25;;
70150;SDS011;57517;43.562;19.540;2023-02-28T10:16:17;26.48;;;18.42;;
70150;SDS011;57517;43.562;19.540;2023-02-28T10:18:52;28.50;;;18.90;;
70150;SDS011;57517;43.562;19.540;2023-02-28T10:21:28;26.85;;;17.60;;
70150;SDS011;57517;43.562;19.540;2023-02-28T10:24:03;27.88;;;19.02;;
70150;SDS011;57517;43.562;19.540;2023-02-28T10:26:40;27.35;;;17.15;;
70150;SDS011;57517;43.562;19.540;2023-02-28T10:29:10;27.98;;;19.50;;
70150;SDS011;57517;43.562;19.540;2023-02-28T10:31:36;28.55;;;20.75;;
70150;SDS011;57517;43.562;19.540;2023-02-28T10:34:03;34.22;;;26.25;;
70150;SDS011;57517;43.562;19.540;2023-02-28T10:36:31;32.33;;;20.27;;
70150;SDS011;57517;43.562;19.540;2023-02-28T10:38:57;34.88;;;24.85;;
70150;SDS011;57517;43.562;19.540;2023-02-28T10:44:12;44.00;;;32.22;;
70150;SDS011;57517;43.562;19.540;2023-02-28T10:46:40;59.70;;;47.42;;
70150;SDS011;57517;43.562;19.540;2023-02-28T10:49:12;35.92;;;25.55;;
70150;SDS011;57517;43.562;19.540;2023-02-28T10:51:52;47.83;;;34.97;;
70150;SDS011;57517;43.562;19.540;2023-02-28T10:59:52;61.22;;;44.08;;
70150;SDS011;57517;43.562;19.540;2023-02-28T11:02:33;51.45;;;39.28;;
70150;SDS011;57517;43.562;19.540;2023-02-28T11:05:00;48.95;;;38.88;;
70150;SDS011;57517;43.562;19.540;2023-02-28T11:07:26;44.92;;;34.05;;
70150;SDS011;57517;43.562;19.540;2023-02-28T11:09:54;48.00;;;37.45;;
70150;SDS011;57517;43.562;19.540;2023-02-28T11:15:07;48.15;;;36.42;;
70150;SDS011;57517;43.562;19.540;2023-02-28T11:17:44;40.90;;;32.13;;
70150;SDS011;57517;43.562;19.540;2023-02-28T11:20:20;45.08;;;33.53;;
70150;SDS011;57517;43.562;19.540;2023-02-28T11:22:48;42.20;;;33.30;;
70150;SDS011;57517;43.562;19.540;2023-02-28T11:25:21;41.42;;;28.10;;
70150;SDS011;57517;43.562;19.540;2023-02-28T11:27:52;84.03;;;69.18;;
70150;SDS011;57517;43.562;19.540;2023-02-28T11:30:26;53.47;;;41.42;;
70150;SDS011;57517;43.562;19.540;2023-02-28T11:32:54;65.35;;;43.60;;
70150;SDS011;57517;43.562;19.540;2023-02-28T11:37:57;80.47;;;61.60;;
70150;SDS011;57517;43.562;19.540;2023-02-28T11:40:27;93.20;;;71.35;;
70150;SDS011;57517;43.562;19.540;2023-02-28T11:51:08;67.22;;;49.60;;
70150;SDS011;57517;43.562;19.540;2023-02-28T11:53:55;48.42;;;35.28;;
70150;SDS011;57517;43.562;19.540;2023-02-28T12:04:52;85.18;;;64.75;;
70150;SDS011;57517;43.562;19.540;2023-02-28T12:10:22;52.65;;;38.78;;
70150;SDS011;57517;43.562;19.540;2023-02-28T12:27:41;78.80;;;61.35;;
70150;SDS011;57517;43.562;19.540;2023-02-28T12:33:14;85.30;;;65.45;;
70150;SDS011;57517;43.562;19.540;2023-02-28T12:35:49;98.65;;;82.28;;
70150;SDS011;57517;43.562;19.540;2023-02-28T12:39:03;105.13;;;81.47;;
70150;SDS011;57517;43.562;19.540;2023-02-28T12:41:13;63.70;;;47.40;;
70150;SDS011;57517;43.562;19.540;2023-02-28T12:44:00;62.72;;;44.05;;
70150;SDS011;57517;43.562;19.540;2023-02-28T12:48:58;84.85;;;68.75;;
70150;SDS011;57517;43.562;19.540;2023-02-28T12:51:27;62.28;;;45.70;;
70150;SDS011;57517;43.562;19.540;2023-02-28T12:56:48;70.75;;;53.03;;
70150;SDS011;57517;43.562;19.540;2023-02-28T13:05:38;51.50;;;35.72;;
70150;SDS011;57517;43.562;19.540;2023-02-28T13:11:06;45.85;;;32.67;;
70150;SDS011;57517;43.562;19.540;2023-02-28T13:13:47;43.22;;;31.42;;
70150;SDS011;57517;43.562;19.540;2023-02-28T13:16:21;45.92;;;32.25;;
70150;SDS011;57517;43.562;19.540;2023-02-28T13:18:47;38.72;;;25.38;;
70150;SDS011;57517;43.562;19.540;2023-02-28T13:21:24;42.03;;;29.52;;
70150;SDS011;57517;43.562;19.540;2023-02-28T13:23:58;51.30;;;27.83;;
70150;SDS011;57517;43.562;19.540;2023-02-28T13:34:35;56.05;;;39.92;;
70150;SDS011;57517;43.562;19.540;2023-02-28T13:37:47;64.77;;;46.97;;
70150;SDS011;57517;43.562;19.540;2023-02-28T13:39:57;88.22;;;63.08;;
70150;SDS011;57517;43.562;19.540;2023-02-28T13:42:35;49.85;;;38.03;;
70150;SDS011;57517;43.562;19.540;2023-02-28T13:47:36;70.05;;;52.90;;
70150;SDS011;57517;43.562;19.540;2023-02-28T13:52:57;88.90;;;61.90;;
70150;SDS011;57517;43.562;19.540;2023-02-28T14:06:32;77.63;;;58.30;;
70150;SDS011;57517;43.562;19.540;2023-02-28T14:11:42;98.65;;;78.38;;
70150;SDS011;57517;43.562;19.540;2023-02-28T14:14:09;89.85;;;71.25;;
70150;SDS011;57517;43.562;19.540;2023-02-28T14:17:03;107.30;;;84.43;;
70150;SDS011;57517;43.562;19.540;2023-02-28T14:19:39;82.75;;;56.13;;
70150;SDS011;57517;43.562;19.540;2023-02-28T14:27:48;101.57;;;76.30;;
70150;SDS011;57517;43.562;19.540;2023-02-28T14:36:22;183.85;;;135.35;;
70150;SDS011;57517;43.562;19.540;2023-02-28T14:38:59;63.38;;;45.28;;
70150;SDS011;57517;43.562;19.540;2023-02-28T14:41:32;51.15;;;37.97;;
70150;SDS011;57517;43.562;19.540;2023-02-28T14:44:13;125.82;;;94.80;;
70150;SDS011;57517;43.562;19.540;2023-02-28T14:46:42;131.60;;;93.55;;
70150;SDS011;57517;43.562;19.540;2023-02-28T14:49:24;105.15;;;71.72;;
70150;SDS011;57517;43.562;19.540;2023-02-28T14:54:27;183.10;;;123.65;;
70150;SDS011;57517;43.562;19.540;2023-02-28T14:56:54;127.82;;;88.28;;
70150;SDS011;57517;43.562;19.540;2023-02-28T15:04:41;61.97;;;43.28;;
70150;SDS011;57517;43.562;19.540;2023-02-28T15:07:12;76.38;;;54.92;;
70150;SDS011;57517;43.562;19.540;2023-02-28T15:09:39;71.70;;;49.42;;
70150;SDS011;57517;43.562;19.540;2023-02-28T15:12:05;86.05;;;61.35;;
70150;SDS011;57517;43.562;19.540;2023-02-28T15:14:32;77.60;;;56.25;;
70150;SDS011;57517;43.562;19.540;2023-02-28T15:17:08;141.10;;;92.97;;
70150;SDS011;57517;43.562;19.540;2023-02-28T15:19:39;160.45;;;116.68;;
70150;SDS011;57517;43.562;19.540;2023-02-28T15:22:11;89.40;;;62.15;;
70150;SDS011;57517;43.562;19.540;2023-02-28T15:24:51;62.95;;;42.72;;
70150;SDS011;57517;43.562;19.540;2023-02-28T15:27:25;66.60;;;45.97;;
70150;SDS011;57517;43.562;19.540;2023-02-28T15:29:58;68.65;;;46.90;;
70150;SDS011;57517;43.562;19.540;2023-02-28T15:32:33;81.15;;;59.72;;
70150;SDS011;57517;43.562;19.540;2023-02-28T15:37:50;59.30;;;41.38;;
70150;SDS011;57517;43.562;19.540;2023-02-28T15:43:12;79.38;;;54.92;;
70150;SDS011;57517;43.562;19.540;2023-02-28T15:45:50;61.33;;;43.47;;
70150;SDS011;57517;43.562;19.540;2023-02-28T15:48:44;50.35;;;34.00;;
70150;SDS011;57517;43.562;19.540;2023-02-28T15:51:18;47.40;;;32.42;;
70150;SDS011;57517;43.562;19.540;2023-02-28T15:56:29;49.83;;;35.38;;
70150;SDS011;57517;43.562;19.540;2023-02-28T15:59:04;66.82;;;45.92;;
70150;SDS011;57517;43.562;19.540;2023-02-28T16:01:35;56.90;;;40.88;;
70150;SDS011;57517;43.562;19.540;2023-02-28T16:04:03;55.58;;;39.92;;
70150;SDS011;57517;43.562;19.540;2023-02-28T16:09:03;53.78;;;36.17;;
70150;SDS011;57517;43.562;19.540;2023-02-28T16:11:38;42.35;;;28.80;;
70150;SDS011;57517;43.562;19.540;2023-02-28T16:14:14;39.88;;;26.23;;
70150;SDS011;57517;43.562;19.540;2023-02-28T16:16:43;45.88;;;28.95;;
70150;SDS011;57517;43.562;19.540;2023-02-28T16:19:10;38.25;;;25.05;;
70150;SDS011;57517;43.562;19.540;2023-02-28T16:21:36;39.65;;;26.83;;
70150;SDS011;57517;43.562;19.540;2023-02-28T16:24:02;49.03;;;29.33;;
70150;SDS011;57517;43.562;19.540;2023-02-28T16:26:27;42.38;;;28.38;;
70150;SDS011;57517;43.562;19.540;2023-02-28T16:28:53;43.60;;;29.58;;
70150;SDS011;57517;43.562;19.540;2023-02-28T16:31:20;43.67;;;28.67;;
70150;SDS011;57517;43.562;19.540;2023-02-28T16:33:46;43.20;;;26.88;;
70150;SDS011;57517;43.562;19.540;2023-02-28T16:36:19;43.22;;;28.33;;
70150;SDS011;57517;43.562;19.540;2023-02-28T16:38:49;42.78;;;28.05;;
70150;SDS011;57517;43.562;19.540;2023-02-28T16:41:19;38.83;;;25.92;;
70150;SDS011;57517;43.562;19.540;2023-02-28T16:43:55;46.72;;;29.92;;
70150;SDS011;57517;43.562;19.540;2023-02-28T16:46:27;43.10;;;29.95;;
70150;SDS011;57517;43.562;19.540;2023-02-28T16:48:58;51.58;;;31.15;;
70150;SDS011;57517;43.562;19.540;2023-02-28T16:51:23;45.72;;;29.20;;
70150;SDS011;57517;43.562;19.540;2023-02-28T16:53:49;46.15;;;31.80;;
70150;SDS011;57517;43.562;19.540;2023-02-28T16:56:16;46.25;;;31.17;;
70150;SDS011;57517;43.562;19.540;2023-02-28T16:58:44;41.95;;;31.30;;
70150;SDS011;57517;43.562;19.540;2023-02-28T17:01:10;51.42;;;33.05;;
70150;SDS011;57517;43.562;19.540;2023-02-28T17:03:36;45.67;;;31.20;;
70150;SDS011;57517;43.562;19.540;2023-02-28T17:06:02;40.50;;;27.17;;
70150;SDS011;57517;43.562;19.540;2023-02-28T17:08:29;41.88;;;28.25;;
70150;SDS011;57517;43.562;19.540;2023-02-28T17:10:57;40.30;;;27.17;;
70150;SDS011;57517;43.562;19.540;2023-02-28T17:13:23;47.55;;;31.42;;
70150;SDS011;57517;43.562;19.540;2023-02-28T17:15:49;45.60;;;30.38;;
70150;SDS011;57517;43.562;19.540;2023-02-28T17:18:15;45.88;;;28.33;;